createdAt,value
2022-10-26T04:30:40.030Z,999.14
2022-10-26T04:31:39.889Z,999.14
2022-10-26T04:32:40.734Z,999.09
2022-10-26T04:33:39.810Z,999.09
2022-10-26T04:34:39.713Z,999.12
2022-10-26T04:35:39.736Z,999.14
2022-10-26T04:36:39.732Z,999.04
2022-10-26T04:37:39.683Z,999.08
2022-10-26T04:38:39.722Z,999.08
2022-10-26T04:39:39.654Z,999.13
2022-10-26T04:40:39.692Z,999.14
2022-10-26T04:41:39.696Z,999.15
2022-10-26T04:42:39.639Z,999.16
2022-10-26T04:43:39.645Z,999.12
2022-10-26T04:44:39.596Z,999.11
2022-10-26T04:45:39.597Z,999.09
2022-10-26T04:46:39.602Z,999.14
2022-10-26T04:47:39.606Z,999.03
2022-10-26T04:48:39.570Z,999.02
2022-10-26T04:49:39.582Z,999.01
2022-10-26T04:50:39.576Z,999.02
2022-10-26T04:51:39.532Z,998.98
2022-10-26T04:52:39.555Z,998.97
2022-10-26T04:53:39.533Z,998.99
2022-10-26T04:54:39.504Z,999.00
2022-10-26T04:55:39.497Z,998.98
2022-10-26T04:56:39.535Z,999.00
2022-10-26T04:57:39.459Z,998.93
2022-10-26T04:58:39.461Z,998.92
2022-10-26T04:59:39.476Z,998.89
2022-10-26T05:00:39.498Z,998.90
2022-10-26T05:01:39.513Z,998.95
2022-10-26T05:02:39.424Z,998.96
2022-10-26T05:03:39.414Z,998.94
2022-10-26T05:04:39.383Z,998.88
2022-10-26T05:05:39.422Z,998.88
2022-10-26T05:06:39.374Z,998.86
2022-10-26T05:07:39.402Z,998.87
2022-10-26T05:08:39.378Z,998.93
2022-10-26T05:09:39.358Z,998.90
2022-10-26T05:10:39.322Z,998.91
2022-10-26T05:11:39.405Z,998.95
2022-10-26T05:12:39.344Z,998.99
2022-10-26T05:13:39.282Z,998.91
2022-10-26T05:14:39.351Z,998.96
2022-10-26T05:15:39.269Z,998.84
2022-10-26T05:16:39.305Z,998.81
2022-10-26T05:17:39.271Z,998.83
2022-10-26T05:18:39.248Z,998.82
2022-10-26T05:19:39.252Z,998.77
2022-10-26T05:20:39.217Z,998.78
2022-10-26T05:21:39.242Z,998.74
2022-10-26T05:22:39.195Z,998.75
2022-10-26T05:23:39.210Z,998.81
2022-10-26T05:24:39.201Z,998.77
2022-10-26T05:25:39.180Z,998.75
2022-10-26T05:26:39.141Z,998.82
2022-10-26T05:27:39.134Z,998.85
2022-10-26T05:28:39.150Z,998.81
2022-10-26T05:29:39.138Z,998.85
2022-10-26T05:30:39.160Z,998.81
2022-10-26T05:31:39.090Z,998.81
2022-10-26T05:32:39.072Z,998.76
2022-10-26T05:33:39.068Z,998.77
2022-10-26T05:34:40.863Z,998.76
2022-10-26T05:35:39.160Z,998.76
2022-10-26T05:36:39.081Z,998.78
2022-10-26T05:37:39.033Z,998.73
2022-10-26T05:38:39.044Z,998.75
2022-10-26T05:39:38.993Z,998.77
2022-10-26T05:40:39.009Z,998.81
2022-10-26T05:41:38.996Z,998.84
2022-10-26T05:42:38.955Z,998.84
2022-10-26T05:43:39.070Z,998.87
2022-10-26T05:44:38.940Z,998.94
2022-10-26T05:45:38.976Z,998.95
2022-10-26T05:46:38.983Z,998.95
2022-10-26T05:47:38.947Z,998.97
2022-10-26T05:48:38.890Z,998.99
2022-10-26T05:49:38.883Z,999.04
2022-10-26T05:50:38.907Z,999.08
2022-10-26T05:51:38.880Z,999.03
2022-10-26T05:52:38.890Z,999.08
2022-10-26T05:53:38.975Z,999.02
2022-10-26T05:54:38.846Z,999.05
2022-10-26T05:55:38.829Z,999.03
2022-10-26T05:56:38.805Z,999.05
2022-10-26T05:57:38.789Z,999.03
2022-10-26T05:58:38.778Z,999.01
2022-10-26T05:59:38.797Z,999.03
2022-10-26T06:00:38.797Z,999.04
2022-10-26T06:01:38.959Z,998.97
2022-10-26T06:02:38.843Z,998.99
2022-10-26T06:03:38.731Z,999.05
2022-10-26T06:04:38.870Z,999.03
2022-10-26T06:05:38.752Z,999.09
2022-10-26T06:06:38.750Z,999.11
2022-10-26T06:07:38.707Z,999.16
2022-10-26T06:08:38.671Z,999.18
2022-10-26T06:09:38.680Z,999.17
2022-10-26T06:10:38.657Z,999.21
2022-10-26T06:11:38.708Z,999.20
2022-10-26T06:12:38.666Z,999.23
2022-10-26T06:13:38.633Z,999.26
2022-10-26T06:14:38.630Z,999.24
2022-10-26T06:15:38.612Z,999.29
2022-10-26T06:16:38.585Z,999.30
2022-10-26T06:17:38.606Z,999.33
2022-10-26T06:18:38.587Z,999.29
2022-10-26T06:19:38.544Z,999.33
2022-10-26T06:20:38.548Z,999.36
2022-10-26T06:21:38.537Z,999.36
2022-10-26T06:22:38.524Z,999.34
2022-10-26T06:23:38.532Z,999.39
2022-10-26T06:24:38.642Z,999.35
2022-10-26T06:25:38.532Z,999.37
2022-10-26T06:26:38.499Z,999.36
2022-10-26T06:27:38.581Z,999.38
2022-10-26T06:28:38.506Z,999.39
2022-10-26T06:29:38.527Z,999.42
2022-10-26T06:30:38.498Z,999.45
2022-10-26T06:31:38.542Z,999.47
2022-10-26T06:32:38.399Z,999.51
2022-10-26T06:33:38.391Z,999.46
2022-10-26T06:34:38.407Z,999.45
2022-10-26T06:35:38.403Z,999.41
2022-10-26T06:36:38.382Z,999.45
2022-10-26T06:37:38.350Z,999.42
2022-10-26T06:38:38.368Z,999.43
2022-10-26T06:39:38.356Z,999.45
2022-10-26T06:40:38.349Z,999.45
2022-10-26T06:41:38.337Z,999.49
2022-10-26T06:42:38.292Z,999.48
2022-10-26T06:43:38.549Z,999.49
2022-10-26T06:44:38.380Z,999.44
2022-10-26T06:45:38.538Z,999.49
2022-10-26T06:46:38.240Z,999.46
2022-10-26T06:47:38.264Z,999.45
2022-10-26T06:48:38.229Z,999.49
2022-10-26T06:49:38.231Z,999.47
2022-10-26T06:50:38.273Z,999.45
2022-10-26T06:51:38.188Z,999.48
2022-10-26T06:52:38.187Z,999.52
2022-10-26T06:54:38.186Z,999.55
2022-10-26T06:55:38.167Z,999.57
2022-10-26T06:56:38.135Z,999.58
2022-10-26T06:57:38.119Z,999.56
2022-10-26T06:58:38.148Z,999.56
2022-10-26T06:59:38.094Z,999.57
2022-10-26T07:00:38.087Z,999.57
2022-10-26T07:01:38.169Z,999.56
2022-10-26T07:02:38.105Z,999.64
2022-10-26T07:03:38.087Z,999.64
2022-10-26T07:04:38.056Z,999.61
2022-10-26T07:05:38.021Z,999.59
2022-10-26T07:06:39.362Z,999.66
2022-10-26T07:07:38.024Z,999.66
2022-10-26T07:08:38.037Z,999.70
2022-10-26T07:09:37.981Z,999.70
2022-10-26T07:10:37.984Z,999.70
2022-10-26T07:11:37.954Z,999.71
2022-10-26T07:12:37.945Z,999.70
2022-10-26T07:13:38.009Z,999.73
2022-10-26T07:14:37.929Z,999.75
2022-10-26T07:15:37.909Z,999.74
2022-10-26T07:16:37.906Z,999.80
2022-10-26T07:17:39.410Z,999.82
2022-10-26T07:18:37.881Z,999.83
2022-10-26T07:19:37.911Z,999.82
2022-10-26T07:20:37.885Z,999.83
2022-10-26T07:21:37.840Z,999.83
2022-10-26T07:22:37.872Z,999.81
2022-10-26T07:23:37.821Z,999.86
2022-10-26T07:24:37.812Z,999.82
2022-10-26T07:25:37.825Z,999.85
2022-10-26T07:26:37.811Z,999.85
2022-10-26T07:27:37.772Z,999.91
2022-10-26T07:28:37.795Z,999.90
2022-10-26T07:29:37.754Z,999.95
2022-10-26T07:30:37.760Z,999.97
2022-10-26T07:31:37.753Z,999.90
2022-10-26T07:32:37.715Z,999.91
2022-10-26T07:33:40.796Z,999.96
2022-10-26T07:34:37.747Z,1000.00
2022-10-26T07:35:37.682Z,999.95
2022-10-26T07:36:37.685Z,999.92
2022-10-26T07:37:37.696Z,999.94
2022-10-26T07:38:37.651Z,999.95
2022-10-26T07:39:37.658Z,999.98
2022-10-26T07:40:37.642Z,1000.00
2022-10-26T07:41:37.616Z,1000.02
2022-10-26T07:42:37.650Z,1000.05
2022-10-26T07:43:37.611Z,1000.05
2022-10-26T07:44:37.603Z,1000.12
2022-10-26T07:45:37.571Z,1000.10
2022-10-26T07:46:37.555Z,1000.11
2022-10-26T07:47:37.544Z,1000.02
2022-10-26T07:48:37.583Z,1000.05
2022-10-26T07:49:37.600Z,1000.07
2022-10-26T07:50:37.532Z,1000.06
2022-10-26T07:51:37.496Z,1000.06
2022-10-26T07:52:37.492Z,1000.09
2022-10-26T07:53:37.481Z,1000.05
2022-10-26T07:54:37.463Z,1000.05
2022-10-26T07:55:37.479Z,1000.04
2022-10-26T07:56:37.456Z,1000.06
2022-10-26T07:57:37.466Z,1000.04
2022-10-26T07:58:37.497Z,1000.03
2022-10-26T07:59:37.416Z,1000.01
2022-10-26T08:00:37.432Z,1000.00
2022-10-26T08:01:38.038Z,999.99
2022-10-26T08:02:37.372Z,999.97
2022-10-26T08:03:37.376Z,999.92
2022-10-26T08:04:37.376Z,999.92
2022-10-26T08:05:37.363Z,999.95
2022-10-26T08:06:37.339Z,999.93
2022-10-26T08:07:37.366Z,999.91
2022-10-26T08:08:37.319Z,999.83
2022-10-26T08:09:37.295Z,999.86
2022-10-26T08:10:37.310Z,999.88
2022-10-26T08:11:37.275Z,999.91
2022-10-26T08:12:37.261Z,999.84
2022-10-26T08:13:37.289Z,999.90
2022-10-26T08:14:37.273Z,999.96
2022-10-26T08:15:37.228Z,999.96
2022-10-26T08:16:37.238Z,1000.01
2022-10-26T08:17:37.203Z,999.90
2022-10-26T08:18:37.200Z,999.86
2022-10-26T08:19:37.192Z,999.90
2022-10-26T08:20:37.192Z,999.87
2022-10-26T08:21:40.060Z,999.95
2022-10-26T08:22:37.179Z,999.92
2022-10-26T08:23:37.152Z,999.95
2022-10-26T08:24:37.159Z,999.93
2022-10-26T08:25:37.134Z,999.94
2022-10-26T08:26:37.102Z,1000.00
2022-10-26T08:27:37.094Z,1000.04
2022-10-26T08:28:37.084Z,1000.14
2022-10-26T08:29:37.091Z,1000.10
2022-10-26T08:30:37.089Z,1000.10
2022-10-26T08:31:37.069Z,1000.14
2022-10-26T08:32:37.043Z,1000.17
2022-10-26T08:33:37.044Z,1000.23
2022-10-26T08:34:37.027Z,1000.24
2022-10-26T08:35:37.022Z,1000.18
2022-10-26T08:36:37.005Z,1000.23
2022-10-26T08:37:37.017Z,1000.27
2022-10-26T08:38:36.969Z,1000.19
2022-10-26T08:39:36.966Z,1000.27
2022-10-26T08:40:36.991Z,1000.30
2022-10-26T08:41:36.935Z,1000.25
2022-10-26T08:42:36.938Z,1000.22
2022-10-26T08:43:36.942Z,1000.22
2022-10-26T08:44:36.919Z,1000.24
2022-10-26T08:45:37.333Z,1000.24
2022-10-26T08:46:36.915Z,1000.23
2022-10-26T08:47:36.872Z,1000.23
2022-10-26T08:48:36.870Z,1000.33
2022-10-26T08:49:36.899Z,1000.34
2022-10-26T08:50:40.454Z,1000.32
2022-10-26T08:51:37.898Z,1000.29
2022-10-26T08:52:36.849Z,1000.34
2022-10-26T08:53:36.804Z,1000.41
2022-10-26T08:54:36.844Z,1000.42
2022-10-26T08:55:36.846Z,1000.36
2022-10-26T08:56:36.781Z,1000.35
2022-10-26T08:57:36.772Z,1000.31
2022-10-26T08:58:36.754Z,1000.31
2022-10-26T08:59:36.752Z,1000.29
2022-10-26T09:00:36.751Z,1000.32
2022-10-26T09:01:36.826Z,1000.35
2022-10-26T09:02:36.725Z,1000.27
2022-10-26T09:03:36.718Z,1000.31
2022-10-26T09:04:36.723Z,1000.34
2022-10-26T09:05:37.024Z,1000.35
2022-10-26T09:06:36.712Z,1000.38
2022-10-26T09:07:36.690Z,1000.31
2022-10-26T09:08:36.659Z,1000.33
2022-10-26T09:09:36.648Z,1000.33
2022-10-26T09:10:36.621Z,1000.35
2022-10-26T09:11:36.622Z,1000.35
2022-10-26T09:12:36.605Z,1000.33
2022-10-26T09:13:36.611Z,1000.33
2022-10-26T09:14:36.599Z,1000.36
2022-10-26T09:15:36.597Z,1000.36
2022-10-26T09:16:36.555Z,1000.38
2022-10-26T09:17:36.548Z,1000.43
2022-10-26T09:18:36.603Z,1000.42
2022-10-26T09:19:36.562Z,1000.44
2022-10-26T09:20:36.508Z,1000.43
2022-10-26T09:21:36.502Z,1000.44
2022-10-26T09:22:36.485Z,1000.39
2022-10-26T09:23:36.491Z,1000.49
2022-10-26T09:24:36.471Z,1000.54
2022-10-26T09:25:36.473Z,1000.44
2022-10-26T09:26:36.444Z,1000.42
2022-10-26T09:27:36.473Z,1000.49
2022-10-26T09:28:36.429Z,1000.53
2022-10-26T09:29:36.413Z,1000.52
2022-10-26T09:30:36.426Z,1000.51
2022-10-26T09:31:39.570Z,1000.51
2022-10-26T09:32:37.398Z,1000.50
2022-10-26T09:33:36.371Z,1000.50
2022-10-26T09:34:36.370Z,1000.53
2022-10-26T09:35:36.365Z,1000.45
2022-10-26T09:36:36.366Z,1000.55
2022-10-26T09:37:36.324Z,1000.54
2022-10-26T09:38:36.337Z,1000.51
2022-10-26T09:39:36.310Z,1000.54
2022-10-26T09:40:36.287Z,1000.56
2022-10-26T09:41:36.276Z,1000.60
2022-10-26T09:42:36.297Z,1000.59
2022-10-26T09:43:36.319Z,1000.65
2022-10-26T09:44:36.266Z,1000.61
2022-10-26T09:45:36.236Z,1000.64
2022-10-26T09:46:36.229Z,1000.62
2022-10-26T09:47:36.212Z,1000.66
2022-10-26T09:48:36.222Z,1000.62
2022-10-26T09:49:36.190Z,1000.69
2022-10-26T09:50:36.211Z,1000.67
2022-10-26T09:51:36.168Z,1000.66
2022-10-26T09:52:36.169Z,1000.69
2022-10-26T09:53:36.146Z,1000.73
2022-10-26T09:54:36.159Z,1000.75
2022-10-26T09:55:36.166Z,1000.77
2022-10-26T09:56:36.129Z,1000.75
2022-10-26T09:57:36.103Z,1000.75
2022-10-26T09:58:36.098Z,1000.78
2022-10-26T09:59:36.100Z,1000.79
2022-10-26T10:01:38.663Z,1000.73
2022-10-26T10:02:36.134Z,1000.82
2022-10-26T10:03:36.059Z,1000.79
2022-10-26T10:04:36.069Z,1000.80
2022-10-26T10:05:52.658Z,1000.83
2022-10-26T10:06:37.030Z,1000.85
2022-10-26T10:07:39.962Z,1000.84
2022-10-26T10:08:35.985Z,1000.89
2022-10-26T10:09:35.969Z,1000.92
2022-10-26T10:10:35.976Z,1000.83
2022-10-26T10:11:35.952Z,1000.92
2022-10-26T10:12:35.969Z,1000.91
2022-10-26T10:13:35.927Z,1000.96
2022-10-26T10:14:38.893Z,1000.96
2022-10-26T10:15:35.918Z,1000.98
2022-10-26T10:16:35.896Z,1001.00
2022-10-26T10:17:35.906Z,1001.07
2022-10-26T10:18:35.901Z,1001.06
2022-10-26T10:19:35.863Z,1001.06
2022-10-26T10:20:35.873Z,1001.09
2022-10-26T10:21:35.877Z,1001.11
2022-10-26T10:22:35.857Z,1001.15
2022-10-26T10:23:35.841Z,1001.17
2022-10-26T10:24:35.832Z,1001.15
2022-10-26T10:25:35.823Z,1001.23
2022-10-26T10:26:35.786Z,1001.19
2022-10-26T10:27:35.793Z,1001.22
2022-10-26T10:28:35.793Z,1001.18
2022-10-26T10:29:35.779Z,1001.16
2022-10-26T10:30:35.783Z,1001.19
2022-10-26T10:31:35.737Z,1001.22
2022-10-26T10:32:38.961Z,1001.25
2022-10-26T10:33:36.731Z,1001.28
2022-10-26T10:34:35.699Z,1001.32
2022-10-26T10:35:35.686Z,1001.31
2022-10-26T10:36:35.736Z,1001.35
2022-10-26T10:37:35.664Z,1001.29
2022-10-26T10:38:35.680Z,1001.29
2022-10-26T10:39:35.666Z,1001.28
2022-10-26T10:40:35.638Z,1001.39
2022-10-26T10:41:35.622Z,1001.37
2022-10-26T10:42:35.658Z,1001.35
2022-10-26T10:43:35.604Z,1001.34
2022-10-26T10:44:35.606Z,1001.38
2022-10-26T10:45:35.578Z,1001.44
2022-10-26T10:46:35.575Z,1001.36
2022-10-26T10:47:35.665Z,1001.37
2022-10-26T10:48:38.617Z,1001.41
2022-10-26T10:49:35.534Z,1001.45
2022-10-26T10:50:35.533Z,1001.50
2022-10-26T10:51:35.534Z,1001.52
2022-10-26T10:52:35.509Z,1001.51
2022-10-26T10:53:35.492Z,1001.57
2022-10-26T10:54:35.532Z,1001.52
2022-10-26T10:55:35.475Z,1001.63
2022-10-26T10:56:35.469Z,1001.62
2022-10-26T10:57:35.500Z,1001.62
2022-10-26T10:58:35.459Z,1001.62
2022-10-26T10:59:35.448Z,1001.63
2022-10-26T11:00:36.419Z,1001.62
2022-10-26T11:01:35.600Z,1001.62
2022-10-26T11:02:35.415Z,1001.61
2022-10-26T11:03:35.420Z,1001.66
2022-10-26T11:04:35.377Z,1001.64
2022-10-26T11:05:35.369Z,1001.63
2022-10-26T11:06:35.384Z,1001.63
2022-10-26T11:07:35.361Z,1001.65
2022-10-26T11:08:35.339Z,1001.65
2022-10-26T11:09:35.349Z,1001.69
2022-10-26T11:10:35.326Z,1001.68
2022-10-26T11:11:35.307Z,1001.71
2022-10-26T11:13:35.302Z,1001.69
2022-10-26T11:14:35.307Z,1001.71
2022-10-26T11:15:35.256Z,1001.75
2022-10-26T11:16:35.254Z,1001.75
2022-10-26T11:17:35.266Z,1001.71
2022-10-26T11:18:35.224Z,1001.71
2022-10-26T11:19:35.211Z,1001.72
2022-10-26T11:20:35.218Z,1001.75
2022-10-26T11:21:35.196Z,1001.77
2022-10-26T11:22:35.184Z,1001.76
2022-10-26T11:23:35.181Z,1001.70
2022-10-26T11:24:35.161Z,1001.76
2022-10-26T11:25:35.148Z,1001.72
2022-10-26T11:26:35.164Z,1001.79
2022-10-26T11:27:35.134Z,1001.77
2022-10-26T11:28:35.116Z,1001.77
2022-10-26T11:29:38.252Z,1001.73
2022-10-26T11:30:35.095Z,1001.77
2022-10-26T11:31:35.108Z,1001.74
2022-10-26T11:32:35.113Z,1001.75
2022-10-26T11:33:35.067Z,1001.79
2022-10-26T11:34:35.055Z,1001.79
2022-10-26T11:35:35.035Z,1001.81
2022-10-26T11:36:35.052Z,1001.80
2022-10-26T11:37:35.082Z,1001.73
2022-10-26T11:38:46.020Z,1001.76
2022-10-26T11:39:35.994Z,1001.74
2022-10-26T11:40:35.003Z,1001.74
2022-10-26T11:41:34.970Z,1001.74
2022-10-26T11:42:34.989Z,1001.77
2022-10-26T11:43:34.953Z,1001.70
2022-10-26T11:44:34.959Z,1001.75
2022-10-26T11:45:34.929Z,1001.68
2022-10-26T11:46:34.935Z,1001.75
2022-10-26T11:47:34.915Z,1001.69
2022-10-26T11:48:34.897Z,1001.71
2022-10-26T11:49:34.883Z,1001.57
2022-10-26T11:50:34.891Z,1001.60
2022-10-26T11:51:34.860Z,1001.63
2022-10-26T11:52:34.870Z,1001.70
2022-10-26T11:53:34.838Z,1001.74
2022-10-26T11:54:34.826Z,1001.72
2022-10-26T11:55:34.816Z,1001.72
2022-10-26T11:56:34.829Z,1001.75
2022-10-26T11:57:34.787Z,1001.82
2022-10-26T11:58:34.852Z,1001.78
2022-10-26T11:59:34.772Z,1001.78
2022-10-26T12:00:34.766Z,1001.74
2022-10-26T12:01:34.819Z,1001.73
2022-10-26T12:02:34.875Z,1001.77
2022-10-26T12:03:34.723Z,1001.77
2022-10-26T12:04:34.737Z,1001.81
2022-10-26T12:05:34.703Z,1001.68
2022-10-26T12:06:34.712Z,1001.76
2022-10-26T12:07:34.684Z,1001.72
2022-10-26T12:08:34.691Z,1001.77
2022-10-26T12:09:35.734Z,1001.78
2022-10-26T12:10:34.687Z,1001.81
2022-10-26T12:11:34.664Z,1001.81
2022-10-26T12:12:37.093Z,1001.82
2022-10-26T12:13:34.637Z,1001.85
2022-10-26T12:14:34.645Z,1001.91
2022-10-26T12:16:01.703Z,1001.87
2022-10-26T12:16:35.581Z,1001.89
2022-10-26T12:17:34.569Z,1001.88
2022-10-26T12:18:54.037Z,1001.90
2022-10-26T12:19:35.548Z,1001.95
2022-10-26T12:20:34.561Z,1001.98
2022-10-26T12:21:34.519Z,1001.97
2022-10-26T12:22:34.539Z,1001.99
2022-10-26T12:23:40.831Z,1002.01
2022-10-26T12:24:35.598Z,1001.97
2022-10-26T12:25:34.479Z,1002.01
2022-10-26T12:26:34.502Z,1001.99
2022-10-26T12:27:34.557Z,1002.00
2022-10-26T12:28:34.497Z,1001.98
2022-10-26T12:29:34.443Z,1002.04
2022-10-26T12:30:34.442Z,1002.00
2022-10-26T12:31:34.452Z,1002.02
2022-10-26T12:32:34.479Z,1002.07
2022-10-26T12:33:34.414Z,1002.11
2022-10-26T12:34:34.396Z,1002.08
2022-10-26T12:35:34.390Z,1002.15
2022-10-26T12:36:34.374Z,1002.10
2022-10-26T12:37:36.677Z,1002.11
2022-10-26T12:38:34.403Z,1002.15
2022-10-26T12:39:34.336Z,1002.18
2022-10-26T12:40:34.322Z,1002.22
2022-10-26T12:41:34.316Z,1002.25
2022-10-26T12:42:34.291Z,1002.23
2022-10-26T12:43:34.357Z,1002.17
2022-10-26T12:44:34.311Z,1002.16
2022-10-26T12:45:34.264Z,1002.20
2022-10-26T12:46:34.278Z,1002.22
2022-10-26T12:47:34.249Z,1002.19
2022-10-26T12:48:39.310Z,1002.19
2022-10-26T12:49:35.250Z,1002.20
2022-10-26T12:50:34.226Z,1002.24
2022-10-26T12:51:39.567Z,1002.21
2022-10-26T12:52:35.220Z,1002.26
2022-10-26T12:53:34.171Z,1002.24
2022-10-26T12:54:34.164Z,1002.28
2022-10-26T12:55:34.182Z,1002.28
2022-10-26T12:56:34.158Z,1002.27
2022-10-26T12:57:34.135Z,1002.27
2022-10-26T12:58:34.124Z,1002.25
2022-10-26T12:59:34.131Z,1002.25
2022-10-26T13:00:34.152Z,1002.25
2022-10-26T13:01:34.274Z,1002.27
2022-10-26T13:02:34.096Z,1002.24
2022-10-26T13:03:34.058Z,1002.30
2022-10-26T13:04:34.044Z,1002.28
2022-10-26T13:05:34.069Z,1002.28
2022-10-26T13:06:34.045Z,1002.31
2022-10-26T13:07:34.048Z,1002.33
2022-10-26T13:08:34.049Z,1002.32
2022-10-26T13:09:34.007Z,1002.19
2022-10-26T13:10:33.981Z,1002.33
2022-10-26T13:11:33.974Z,1002.29
2022-10-26T13:12:33.978Z,1002.30
2022-10-26T13:13:34.009Z,1002.36
2022-10-26T13:14:33.967Z,1002.36
2022-10-26T13:15:33.930Z,1002.30
2022-10-26T13:16:33.929Z,1002.34
2022-10-26T13:18:33.927Z,1002.39
2022-10-26T13:19:33.912Z,1002.36
2022-10-26T13:20:33.913Z,1002.42
2022-10-26T13:21:33.860Z,1002.35
2022-10-26T13:22:33.848Z,1002.35
2022-10-26T13:23:33.851Z,1002.34
2022-10-26T13:24:33.851Z,1002.44
2022-10-26T13:25:33.817Z,1002.40
2022-10-26T13:26:33.831Z,1002.39
2022-10-26T13:27:33.789Z,1002.46
2022-10-26T13:28:33.780Z,1002.45
2022-10-26T13:29:33.771Z,1002.41
2022-10-26T13:30:33.775Z,1002.46
2022-10-26T13:31:33.747Z,1002.42
2022-10-26T13:32:33.768Z,1002.49
2022-10-26T13:33:34.973Z,1002.44
2022-10-26T13:34:33.731Z,1002.49
2022-10-26T13:35:33.717Z,1002.48
2022-10-26T13:36:33.709Z,1002.50
2022-10-26T13:37:33.684Z,1002.55
2022-10-26T13:38:33.691Z,1002.58
2022-10-26T13:39:33.663Z,1002.60
2022-10-26T13:40:33.661Z,1002.55
2022-10-26T13:41:33.635Z,1002.60
2022-10-26T13:43:33.636Z,1002.62
2022-10-26T13:44:33.630Z,1002.62
2022-10-26T13:45:33.597Z,1002.65
2022-10-26T13:46:33.665Z,1002.66
2022-10-26T13:47:33.590Z,1002.65
2022-10-26T13:48:33.568Z,1002.66
2022-10-26T13:49:33.552Z,1002.67
2022-10-26T13:50:33.561Z,1002.69
2022-10-26T13:51:33.531Z,1002.73
2022-10-26T13:52:33.523Z,1002.70
2022-10-26T13:53:36.457Z,1002.66
2022-10-26T13:54:34.504Z,1002.66
2022-10-26T13:55:33.486Z,1002.66
2022-10-26T13:56:33.509Z,1002.68
2022-10-26T13:57:33.472Z,1002.68
2022-10-26T13:58:33.452Z,1002.66
2022-10-26T13:59:33.455Z,1002.64
2022-10-26T14:00:33.486Z,1002.72
2022-10-26T14:01:33.492Z,1002.68
2022-10-26T14:02:33.441Z,1002.62
2022-10-26T14:03:33.394Z,1002.68
2022-10-26T14:04:33.397Z,1002.71
2022-10-26T14:05:33.394Z,1002.65
2022-10-26T14:06:33.382Z,1002.70
2022-10-26T14:07:33.411Z,1002.73
2022-10-26T14:08:33.332Z,1002.81
2022-10-26T14:09:33.363Z,1002.76
2022-10-26T14:10:33.314Z,1002.76
2022-10-26T14:11:33.325Z,1002.77
2022-10-26T14:12:33.294Z,1002.79
2022-10-26T14:13:33.316Z,1002.81
2022-10-26T14:14:33.291Z,1002.82
2022-10-26T14:15:33.264Z,1002.81
2022-10-26T14:16:33.267Z,1002.85
2022-10-26T14:17:33.239Z,1002.90
2022-10-26T14:18:33.233Z,1002.88
2022-10-26T14:19:33.243Z,1002.86
2022-10-26T14:20:33.229Z,1002.88
2022-10-26T14:21:33.199Z,1002.93
2022-10-26T14:22:33.215Z,1002.94
2022-10-26T14:23:33.177Z,1002.95
2022-10-26T14:24:46.167Z,1002.99
2022-10-26T14:25:42.172Z,1003.01
2022-10-26T14:26:34.144Z,1003.03
2022-10-26T14:27:33.142Z,1003.06
2022-10-26T14:28:33.122Z,1003.05
2022-10-26T14:29:33.114Z,1003.03
2022-10-26T14:30:33.146Z,1003.02
2022-10-26T14:31:33.111Z,1003.05
2022-10-26T14:32:33.094Z,1003.10
2022-10-26T14:33:33.064Z,1003.09
2022-10-26T14:34:33.053Z,1003.09
2022-10-26T14:35:33.039Z,1003.11
2022-10-26T14:36:33.026Z,1003.16
2022-10-26T14:37:33.036Z,1003.16
2022-10-26T14:38:33.056Z,1003.15
2022-10-26T14:39:32.996Z,1003.15
2022-10-26T14:40:32.986Z,1003.14
2022-10-26T14:41:33.005Z,1003.14
2022-10-26T14:42:33.001Z,1003.12
2022-10-26T14:43:32.980Z,1003.12
2022-10-26T14:44:32.935Z,1003.10
2022-10-26T14:45:49.547Z,1003.13
2022-10-26T14:46:33.981Z,1003.13
2022-10-26T14:47:32.923Z,1003.12
2022-10-26T14:48:32.891Z,1003.09
2022-10-26T14:49:32.913Z,1003.09
2022-10-26T14:50:32.874Z,1003.11
2022-10-26T14:51:32.869Z,1003.10
2022-10-26T14:52:32.877Z,1003.08
2022-10-26T14:53:32.860Z,1003.09
2022-10-26T14:54:32.845Z,1003.07
2022-10-26T14:55:32.868Z,1003.09
2022-10-26T14:56:32.811Z,1003.08
2022-10-26T14:57:32.799Z,1003.08
2022-10-26T14:58:32.784Z,1003.09
2022-10-26T14:59:32.816Z,1003.08
2022-10-26T15:00:32.764Z,1003.12
2022-10-26T15:01:35.671Z,1003.09
2022-10-26T15:02:32.743Z,1003.13
2022-10-26T15:03:32.732Z,1003.11
2022-10-26T15:04:32.752Z,1003.13
2022-10-26T15:05:35.533Z,1003.13
2022-10-26T15:06:32.723Z,1003.14
2022-10-26T15:07:32.858Z,1003.14
2022-10-26T15:08:45.233Z,1003.13
2022-10-26T15:09:33.674Z,1003.18
2022-10-26T15:10:32.680Z,1003.13
2022-10-26T15:11:32.649Z,1003.17
2022-10-26T15:12:32.639Z,1003.21
2022-10-26T15:13:32.718Z,1003.21
2022-10-26T15:14:32.621Z,1003.20
2022-10-26T15:15:33.106Z,1003.23
2022-10-26T15:16:32.616Z,1003.18
2022-10-26T15:17:32.579Z,1003.22
2022-10-26T15:18:32.567Z,1003.19
2022-10-26T15:19:32.618Z,1003.21
2022-10-26T15:20:32.550Z,1003.23
2022-10-26T15:21:32.536Z,1003.21
2022-10-26T15:22:32.641Z,1003.28
2022-10-26T15:23:32.632Z,1003.27
2022-10-26T15:24:35.871Z,1003.30
2022-10-26T15:25:33.530Z,1003.39
2022-10-26T15:26:32.509Z,1003.37
2022-10-26T15:27:32.501Z,1003.40
2022-10-26T15:28:32.465Z,1003.38
2022-10-26T15:29:32.476Z,1003.41
2022-10-26T15:30:32.474Z,1003.41
2022-10-26T15:31:32.458Z,1003.39
2022-10-26T15:32:32.443Z,1003.38
2022-10-26T15:33:32.398Z,1003.41
2022-10-26T15:34:32.389Z,1003.39
2022-10-26T15:35:32.379Z,1003.34
2022-10-26T15:36:32.412Z,1003.38
2022-10-26T15:37:32.401Z,1003.37
2022-10-26T15:38:32.382Z,1003.39
2022-10-26T15:39:32.364Z,1003.41
2022-10-26T15:40:32.380Z,1003.43
2022-10-26T15:41:32.336Z,1003.46
2022-10-26T15:42:32.445Z,1003.46
2022-10-26T15:43:32.300Z,1003.44
2022-10-26T15:44:32.284Z,1003.46
2022-10-26T15:45:32.273Z,1003.50
2022-10-26T15:46:32.305Z,1003.52
2022-10-26T15:47:32.416Z,1003.49
2022-10-26T15:48:32.245Z,1003.49
2022-10-26T15:49:32.233Z,1003.50
2022-10-26T15:50:32.213Z,1003.55
2022-10-26T15:51:32.221Z,1003.57
2022-10-26T15:52:32.298Z,1003.58
2022-10-26T15:53:32.203Z,1003.61
2022-10-26T15:54:32.186Z,1003.63
2022-10-26T15:55:32.156Z,1003.60
2022-10-26T15:56:32.151Z,1003.61
2022-10-26T15:57:32.216Z,1003.58
2022-10-26T15:58:32.148Z,1003.64
2022-10-26T15:59:32.155Z,1003.61
2022-10-26T16:00:32.102Z,1003.66
2022-10-26T16:01:32.191Z,1003.67
2022-10-26T16:02:32.191Z,1003.67
2022-10-26T16:03:32.070Z,1003.72
2022-10-26T16:04:32.061Z,1003.71
2022-10-26T16:06:32.053Z,1003.74
2022-10-26T16:07:32.163Z,1003.75
2022-10-26T16:08:32.031Z,1003.77
2022-10-26T16:09:32.016Z,1003.77
2022-10-26T16:10:32.007Z,1003.83
2022-10-26T16:11:32.008Z,1003.83
2022-10-26T16:12:32.056Z,1003.83
2022-10-26T16:13:31.972Z,1003.83
2022-10-26T16:14:33.480Z,1003.90
2022-10-26T16:15:32.960Z,1003.93
2022-10-26T16:16:31.943Z,1003.95
2022-10-26T16:17:31.957Z,1003.97
2022-10-26T16:18:31.933Z,1003.98
2022-10-26T16:19:31.944Z,1003.97
2022-10-26T16:20:31.890Z,1003.93
2022-10-26T16:21:31.918Z,1003.99
2022-10-26T16:22:33.852Z,1004.04
2022-10-26T16:23:31.887Z,1004.03
2022-10-26T16:24:31.849Z,1004.02
2022-10-26T16:25:31.856Z,1004.05
2022-10-26T16:26:31.825Z,1004.10
2022-10-26T16:27:31.819Z,1004.10
2022-10-26T16:28:31.797Z,1004.07
2022-10-26T16:29:31.815Z,1004.09
2022-10-26T16:30:31.885Z,1004.11
2022-10-26T16:31:31.775Z,1004.09
2022-10-26T16:32:31.762Z,1004.12
2022-10-26T16:33:31.779Z,1004.13
2022-10-26T16:34:31.728Z,1004.20
2022-10-26T16:35:31.795Z,1004.26
2022-10-26T16:36:31.712Z,1004.24
2022-10-26T16:37:31.707Z,1004.29
2022-10-26T16:38:31.695Z,1004.29
2022-10-26T16:39:31.692Z,1004.26
2022-10-26T16:40:31.701Z,1004.25
2022-10-26T16:41:31.683Z,1004.25
2022-10-26T16:42:31.698Z,1004.26
2022-10-26T16:43:31.632Z,1004.29
2022-10-26T16:44:31.620Z,1004.32
2022-10-26T16:45:31.645Z,1004.33
2022-10-26T16:46:31.629Z,1004.26
2022-10-26T16:47:31.620Z,1004.24
2022-10-26T16:48:31.593Z,1004.24